sensor_id;sensor_type;location;lat;lon;timestamp;temperature;humidity
48376;DHT22;34178;50.904;11.560;2023-06-26T06:56:49;21.10;99.90
48376;DHT22;34178;50.904;11.560;2023-06-26T06:59:14;21.30;99.90
48376;DHT22;34178;50.904;11.560;2023-06-26T07:01:40;21.40;99.90
48376;DHT22;34178;50.904;11.560;2023-06-26T07:04:06;21.50;99.90
48376;DHT22;34178;50.904;11.560;2023-06-26T07:06:31;21.60;99.90
48376;DHT22;34178;50.904;11.560;2023-06-26T09:52:14;29.30;80.30
48376;DHT22;34178;50.904;11.560;2023-06-26T09:54:42;29.30;77.50
48376;DHT22;34178;50.904;11.560;2023-06-26T09:57:12;29.30;75.90
48376;DHT22;34178;50.904;11.560;2023-06-26T10:09:55;29.30;73.70
48376;DHT22;34178;50.904;11.560;2023-06-26T10:12:29;29.30;73.50
48376;DHT22;34178;50.904;11.560;2023-06-26T10:14:59;29.60;76.50
48376;DHT22;34178;50.904;11.560;2023-06-26T10:17:28;29.70;74.00
48376;DHT22;34178;50.904;11.560;2023-06-26T10:19:55;29.60;75.80
48376;DHT22;34178;50.904;11.560;2023-06-26T10:22:27;29.70;76.00
48376;DHT22;34178;50.904;11.560;2023-06-26T10:24:57;29.80;73.70
48376;DHT22;34178;50.904;11.560;2023-06-26T10:27:28;29.90;75.70
48376;DHT22;34178;50.904;11.560;2023-06-26T10:29:57;30.00;72.10
48376;DHT22;34178;50.904;11.560;2023-06-26T10:32:25;30.00;73.30
48376;DHT22;34178;50.904;11.560;2023-06-26T10:34:52;30.00;72.80
48376;DHT22;34178;50.904;11.560;2023-06-26T10:37:18;30.10;73.40
48376;DHT22;34178;50.904;11.560;2023-06-26T10:39:53;30.20;70.90
48376;DHT22;34178;50.904;11.560;2023-06-26T10:42:35;30.10;75.50
48376;DHT22;34178;50.904;11.560;2023-06-26T10:45:14;30.20;71.40
48376;DHT22;34178;50.904;11.560;2023-06-26T10:47:41;30.20;69.60
48376;DHT22;34178;50.904;11.560;2023-06-26T10:50:23;30.30;70.60
48376;DHT22;34178;50.904;11.560;2023-06-26T10:53:15;30.30;69.80
48376;DHT22;34178;50.904;11.560;2023-06-26T10:58:43;30.50;71.50
48376;DHT22;34178;50.904;11.560;2023-06-26T11:01:19;30.40;70.10
48376;DHT22;34178;50.904;11.560;2023-06-26T11:04:06;30.50;75.60
48376;DHT22;34178;50.904;11.560;2023-06-26T11:06:34;30.80;72.30
48376;DHT22;34178;50.904;11.560;2023-06-26T11:14:18;30.90;68.70
48376;DHT22;34178;50.904;11.560;2023-06-26T11:16:44;30.80;66.70
48376;DHT22;34178;50.904;11.560;2023-06-26T11:19:11;30.60;68.80
48376;DHT22;34178;50.904;11.560;2023-06-26T11:21:40;30.50;68.70
48376;DHT22;34178;50.904;11.560;2023-06-26T11:24:06;30.70;70.10
48376;DHT22;34178;50.904;11.560;2023-06-26T11:26:41;30.80;70.80
48376;DHT22;34178;50.904;11.560;2023-06-26T11:29:08;30.90;68.80
48376;DHT22;34178;50.904;11.560;2023-06-26T11:31:36;30.80;69.10
48376;DHT22;34178;50.904;11.560;2023-06-26T11:34:04;30.90;69.40
48376;DHT22;34178;50.904;11.560;2023-06-26T11:36:31;31.00;69.00
48376;DHT22;34178;50.904;11.560;2023-06-26T11:38:58;31.20;69.10
48376;DHT22;34178;50.904;11.560;2023-06-26T11:41:25;31.20;67.20
48376;DHT22;34178;50.904;11.560;2023-06-26T11:43:52;31.30;68.60
48376;DHT22;34178;50.904;11.560;2023-06-26T11:46:20;31.40;68.30
48376;DHT22;34178;50.904;11.560;2023-06-26T11:48:46;31.40;66.30
48376;DHT22;34178;50.904;11.560;2023-06-26T11:51:13;31.40;69.70
48376;DHT22;34178;50.904;11.560;2023-06-26T11:53:41;31.50;68.50
48376;DHT22;34178;50.904;11.560;2023-06-26T11:56:11;31.60;72.60
48376;DHT22;34178;50.904;11.560;2023-06-26T11:59:04;31.80;68.40
48376;DHT22;34178;50.904;11.560;2023-06-26T12:01:42;31.90;65.30
48376;DHT22;34178;50.904;11.560;2023-06-26T12:04:09;31.90;67.30
48376;DHT22;34178;50.904;11.560;2023-06-26T12:06:37;32.00;64.70
48376;DHT22;34178;50.904;11.560;2023-06-26T12:09:07;32.10;65.00
48376;DHT22;34178;50.904;11.560;2023-06-26T12:11:35;32.10;64.50
48376;DHT22;34178;50.904;11.560;2023-06-26T12:14:02;32.10;65.20
48376;DHT22;34178;50.904;11.560;2023-06-26T12:16:29;32.20;63.80
48376;DHT22;34178;50.904;11.560;2023-06-26T12:19:04;32.30;62.90
48376;DHT22;34178;50.904;11.560;2023-06-26T12:24:14;32.50;63.50
48376;DHT22;34178;50.904;11.560;2023-06-26T12:26:45;32.70;62.90
48376;DHT22;34178;50.904;11.560;2023-06-26T12:29:13;32.60;62.40
48376;DHT22;34178;50.904;11.560;2023-06-26T12:31:43;32.40;64.80
48376;DHT22;34178;50.904;11.560;2023-06-26T12:34:10;32.10;64.30
48376;DHT22;34178;50.904;11.560;2023-06-26T12:36:45;31.90;66.10
48376;DHT22;34178;50.904;11.560;2023-06-26T12:39:12;32.00;65.10
48376;DHT22;34178;50.904;11.560;2023-06-26T12:41:56;32.00;62.40
48376;DHT22;34178;50.904;11.560;2023-06-26T12:44:26;32.20;63.30
48376;DHT22;34178;50.904;11.560;2023-06-26T12:46:59;32.20;64.10
48376;DHT22;34178;50.904;11.560;2023-06-26T12:49:34;32.70;66.20
48376;DHT22;34178;50.904;11.560;2023-06-26T12:52:02;34.10;63.10
48376;DHT22;34178;50.904;11.560;2023-06-26T12:54:28;35.00;62.30
48376;DHT22;34178;50.904;11.560;2023-06-26T12:56:54;35.30;63.80
48376;DHT22;34178;50.904;11.560;2023-06-26T12:59:21;35.90;61.10
48376;DHT22;34178;50.904;11.560;2023-06-26T13:01:47;35.20;60.60
48376;DHT22;34178;50.904;11.560;2023-06-26T13:04:13;34.50;60.60
48376;DHT22;34178;50.904;11.560;2023-06-26T13:06:39;33.80;61.50
48376;DHT22;34178;50.904;11.560;2023-06-26T13:09:04;33.00;61.40
48376;DHT22;34178;50.904;11.560;2023-06-26T13:11:31;32.90;63.20
48376;DHT22;34178;50.904;11.560;2023-06-26T13:13:57;33.50;62.20
48376;DHT22;34178;50.904;11.560;2023-06-26T13:16:22;34.60;64.90
48376;DHT22;34178;50.904;11.560;2023-06-26T13:18:48;35.60;59.60
48376;DHT22;34178;50.904;11.560;2023-06-26T13:21:14;36.00;58.50
48376;DHT22;34178;50.904;11.560;2023-06-26T13:23:40;34.90;59.80
48376;DHT22;34178;50.904;11.560;2023-06-26T13:26:06;34.10;60.60
48376;DHT22;34178;50.904;11.560;2023-06-26T13:28:32;33.30;60.60
48376;DHT22;34178;50.904;11.560;2023-06-26T13:30:57;32.40;62.40
48376;DHT22;34178;50.904;11.560;2023-06-26T13:33:23;31.90;63.80
48376;DHT22;34178;50.904;11.560;2023-06-26T13:35:52;31.60;66.90
48376;DHT22;34178;50.904;11.560;2023-06-26T13:38:20;31.10;68.70
48376;DHT22;34178;50.904;11.560;2023-06-26T13:40:53;30.40;72.40
48376;DHT22;34178;50.904;11.560;2023-06-26T13:43:21;29.90;73.50
48376;DHT22;34178;50.904;11.560;2023-06-26T13:45:47;29.30;77.80
48376;DHT22;34178;50.904;11.560;2023-06-26T13:48:13;28.70;82.00
48376;DHT22;34178;50.904;11.560;2023-06-26T13:50:39;28.30;84.70
48376;DHT22;34178;50.904;11.560;2023-06-26T13:53:04;27.90;86.90
48376;DHT22;34178;50.904;11.560;2023-06-26T13:55:31;27.70;91.00
48376;DHT22;34178;50.904;11.560;2023-06-26T13:57:56;27.50;92.00
48376;DHT22;34178;50.904;11.560;2023-06-26T14:00:22;27.30;96.00
48376;DHT22;34178;50.904;11.560;2023-06-26T14:02:48;27.20;97.60
48376;DHT22;34178;50.904;11.560;2023-06-26T14:05:14;27.10;99.90
48376;DHT22;34178;50.904;11.560;2023-06-26T14:07:40;26.80;99.90
48376;DHT22;34178;50.904;11.560;2023-06-26T14:10:06;26.90;99.60
48376;DHT22;34178;50.904;11.560;2023-06-26T14:12:32;26.90;99.90
48376;DHT22;34178;50.904;11.560;2023-06-26T14:14:58;27.20;99.90
48376;DHT22;34178;50.904;11.560;2023-06-26T14:17:24;27.50;99.90
48376;DHT22;34178;50.904;11.560;2023-06-26T14:19:54;27.80;99.90
48376;DHT22;34178;50.904;11.560;2023-06-26T14:22:20;29.20;96.40
48376;DHT22;34178;50.904;11.560;2023-06-26T14:24:45;30.90;92.40
48376;DHT22;34178;50.904;11.560;2023-06-26T14:27:11;32.20;91.40
48376;DHT22;34178;50.904;11.560;2023-06-26T14:29:37;33.60;90.00
48376;DHT22;34178;50.904;11.560;2023-06-26T14:32:03;32.80;87.80
48376;DHT22;34178;50.904;11.560;2023-06-26T14:34:29;31.60;88.60
48376;DHT22;34178;50.904;11.560;2023-06-26T14:36:55;30.60;90.10
48376;DHT22;34178;50.904;11.560;2023-06-26T14:39:21;29.80;90.70
48376;DHT22;34178;50.904;11.560;2023-06-26T14:41:47;28.90;91.70
48376;DHT22;34178;50.904;11.560;2023-06-26T14:44:14;28.00;92.40
48376;DHT22;34178;50.904;11.560;2023-06-26T14:46:39;27.40;93.80
48376;DHT22;34178;50.904;11.560;2023-06-26T14:49:05;27.20;93.70
48376;DHT22;34178;50.904;11.560;2023-06-26T14:51:31;26.80;93.90
48376;DHT22;34178;50.904;11.560;2023-06-26T14:53:57;26.50;94.20
48376;DHT22;34178;50.904;11.560;2023-06-26T14:56:22;26.40;94.20
48376;DHT22;34178;50.904;11.560;2023-06-26T14:58:49;26.60;94.00
48376;DHT22;34178;50.904;11.560;2023-06-26T15:01:16;27.30;94.00
48376;DHT22;34178;50.904;11.560;2023-06-26T15:03:44;28.10;92.80
48376;DHT22;34178;50.904;11.560;2023-06-26T15:06:10;29.80;91.60
48376;DHT22;34178;50.904;11.560;2023-06-26T15:08:36;31.20;89.50
48376;DHT22;34178;50.904;11.560;2023-06-26T15:11:02;31.90;86.70
48376;DHT22;34178;50.904;11.560;2023-06-26T15:13:28;33.00;85.10
48376;DHT22;34178;50.904;11.560;2023-06-26T15:15:54;33.10;82.10
48376;DHT22;34178;50.904;11.560;2023-06-26T15:18:19;33.00;81.30
48376;DHT22;34178;50.904;11.560;2023-06-26T17:02:30;35.50;65.50
48376;DHT22;34178;50.904;11.560;2023-06-26T17:04:57;34.30;65.40
48376;DHT22;34178;50.904;11.560;2023-06-26T17:07:23;34.50;66.40
